createdAt,value
2023-12-04T00:00:03.017Z,-1.78
2023-12-04T00:00:13.026Z,-1.99
2023-12-04T00:00:23.019Z,-1.96
2023-12-04T00:00:33.051Z,-1.90
2023-12-04T00:00:43.722Z,-2.06
2023-12-04T00:00:53.024Z,-1.93
2023-12-04T00:01:03.082Z,-2.11
2023-12-04T00:01:23.015Z,-1.90
2023-12-04T00:01:33.039Z,-2.11
2023-12-04T00:01:43.077Z,-1.93
2023-12-04T00:01:53.088Z,-2.11
2023-12-04T00:02:03.746Z,-1.95
2023-12-04T00:02:13.071Z,-1.93
2023-12-04T00:02:33.037Z,-1.90
2023-12-04T00:02:43.002Z,-2.06
2023-12-04T00:02:53.035Z,-2.14
2023-12-04T00:03:03.015Z,-1.93
2023-12-04T00:03:13.072Z,-2.05
2023-12-04T00:03:23.032Z,-2.02
2023-12-04T00:03:43.054Z,-2.18
2023-12-04T00:03:53.042Z,-1.98
2023-12-04T00:04:03.075Z,-2.10
2023-12-04T00:04:13.111Z,-2.02
2023-12-04T00:04:23.059Z,-2.00
2023-12-04T00:04:33.262Z,-1.96
2023-12-04T00:04:53.124Z,-2.08
2023-12-04T00:05:03.067Z,-2.08
2023-12-04T00:05:13.048Z,-2.08
2023-12-04T00:05:23.057Z,-2.16
2023-12-04T00:05:33.016Z,-2.21
2023-12-04T00:05:43.038Z,-1.99
2023-12-04T00:06:02.997Z,-2.13
2023-12-04T00:06:13.811Z,-2.29
2023-12-04T00:06:22.984Z,-2.08
2023-12-04T00:06:33.028Z,-2.13
2023-12-04T00:06:43.132Z,-2.05
2023-12-04T00:06:53.066Z,-2.00
2023-12-04T00:07:03.120Z,-2.02
2023-12-04T00:07:23.008Z,-2.13
2023-12-04T00:07:33.004Z,-2.16
2023-12-04T00:07:42.999Z,-2.11
2023-12-04T00:07:53.025Z,-2.08
2023-12-04T00:08:02.986Z,-2.14
2023-12-04T00:08:13.000Z,-2.08
2023-12-04T00:08:33.002Z,-2.33
2023-12-04T00:08:42.984Z,-2.39
2023-12-04T00:08:52.997Z,-2.13
2023-12-04T00:09:03.090Z,-2.10
2023-12-04T00:09:13.008Z,-2.14
2023-12-04T00:09:22.982Z,-2.26
2023-12-04T00:09:43.002Z,-2.26
2023-12-04T00:09:53.037Z,-2.06
2023-12-04T00:10:02.996Z,-2.06
2023-12-04T00:10:13.027Z,-2.11
2023-12-04T00:10:22.997Z,-2.14
2023-12-04T00:10:33.014Z,-2.23
2023-12-04T00:10:52.993Z,-2.17
2023-12-04T00:11:02.976Z,-2.06
2023-12-04T00:11:13.076Z,-2.08
2023-12-04T00:11:23.020Z,-2.05
2023-12-04T00:11:33.303Z,-2.21
2023-12-04T00:11:43.780Z,-2.21
2023-12-04T00:12:03.032Z,-2.26
2023-12-04T00:12:13.019Z,-2.05
2023-12-04T00:12:22.962Z,-2.14
2023-12-04T00:12:33.042Z,-2.10
2023-12-04T00:12:42.993Z,-2.17
2023-12-04T00:12:53.034Z,-2.14
2023-12-04T00:13:13.009Z,-2.26
2023-12-04T00:13:22.964Z,-2.26
2023-12-04T00:13:33.159Z,-2.17
2023-12-04T00:13:43.694Z,-2.28
2023-12-04T00:13:52.973Z,-2.16
2023-12-04T00:14:02.966Z,-2.28
2023-12-04T00:14:22.980Z,-2.20
2023-12-04T00:14:32.988Z,-2.21
2023-12-04T00:14:42.962Z,-2.23
2023-12-04T00:14:52.988Z,-2.28
2023-12-04T00:15:03.003Z,-2.02
2023-12-04T00:15:12.979Z,-2.10
2023-12-04T00:15:33.010Z,-2.17
2023-12-04T00:15:42.978Z,-2.23
2023-12-04T00:15:53.800Z,-2.35
2023-12-04T00:16:03.221Z,-2.13
2023-12-04T00:16:12.953Z,-2.38
2023-12-04T00:16:22.955Z,-2.36
2023-12-04T00:16:33.054Z,-2.28
2023-12-04T00:16:43.010Z,-2.38
2023-12-04T00:17:02.958Z,-2.20
2023-12-04T00:17:12.952Z,-2.36
2023-12-04T00:17:23.095Z,-2.43
2023-12-04T00:17:32.987Z,-2.33
2023-12-04T00:17:43.016Z,-2.40
2023-12-04T00:17:53.009Z,-2.20
2023-12-04T00:18:13.027Z,-2.33
2023-12-04T00:18:23.013Z,-2.35
2023-12-04T00:18:33.049Z,-2.21
2023-12-04T00:18:43.128Z,-2.47
2023-12-04T00:18:53.003Z,-2.26
2023-12-04T00:19:03.083Z,-2.35
2023-12-04T00:19:23.022Z,-2.38
2023-12-04T00:19:32.981Z,-2.32
2023-12-04T00:19:42.960Z,-2.32
2023-12-04T00:19:52.965Z,-2.13
2023-12-04T00:20:03.033Z,-2.32
2023-12-04T00:20:12.940Z,-2.23
2023-12-04T00:20:33.051Z,-2.47
2023-12-04T00:20:42.942Z,-2.23
2023-12-04T00:20:52.939Z,-2.28
2023-12-04T00:21:02.940Z,-2.35
2023-12-04T00:21:12.948Z,-2.32
2023-12-04T00:21:22.988Z,-2.43
2023-12-04T00:21:43.065Z,-2.28
2023-12-04T00:21:52.939Z,-2.39
2023-12-04T00:22:02.939Z,-2.29
2023-12-04T00:22:12.942Z,-2.35
2023-12-04T00:22:22.927Z,-2.43
2023-12-04T00:22:32.967Z,-2.42
2023-12-04T00:22:53.028Z,-2.26
2023-12-04T00:23:03.695Z,-2.48
2023-12-04T00:23:13.043Z,-2.29
2023-12-04T00:23:22.921Z,-2.40
2023-12-04T00:23:32.942Z,-2.33
2023-12-04T00:23:42.940Z,-2.35
2023-12-04T00:24:02.967Z,-2.23
2023-12-04T00:24:12.949Z,-2.39
2023-12-04T00:24:22.947Z,-2.14
2023-12-04T00:24:32.978Z,-2.33
2023-12-04T00:24:43.002Z,-2.48
2023-12-04T00:24:52.949Z,-2.39
2023-12-04T00:25:12.921Z,-2.28
2023-12-04T00:25:22.912Z,-2.38
2023-12-04T00:25:32.915Z,-2.29
2023-12-04T00:25:42.911Z,-2.33
2023-12-04T00:25:52.939Z,-2.38
2023-12-04T00:26:03.043Z,-2.24
2023-12-04T00:26:12.936Z,-2.21
2023-12-04T00:26:22.965Z,-2.21
2023-12-04T00:26:32.922Z,-2.08
2023-12-04T00:26:52.911Z,-2.51
2023-12-04T00:27:03.014Z,-2.29
2023-12-04T00:27:12.906Z,-2.36
2023-12-04T00:27:22.903Z,-2.47
2023-12-04T00:27:33.018Z,-2.61
2023-12-04T00:27:42.999Z,-2.36
2023-12-04T00:28:02.959Z,-2.38
2023-12-04T00:28:12.907Z,-2.47
2023-12-04T00:28:22.944Z,-2.47
2023-12-04T00:28:32.902Z,-2.32
2023-12-04T00:28:42.897Z,-2.50
2023-12-04T00:28:52.910Z,-2.24
2023-12-04T00:29:02.954Z,-2.39
2023-12-04T00:29:22.911Z,-2.20
2023-12-04T00:29:32.915Z,-2.35
2023-12-04T00:29:42.960Z,-2.28
2023-12-04T00:29:52.980Z,-2.39
2023-12-04T00:30:02.899Z,-2.32
2023-12-04T00:30:12.925Z,-2.45
2023-12-04T00:30:33.742Z,-2.33
2023-12-04T00:30:42.916Z,-2.40
2023-12-04T00:30:52.959Z,-2.23
2023-12-04T00:31:02.935Z,-2.14
2023-12-04T00:31:12.906Z,-2.36
2023-12-04T00:31:22.956Z,-2.29
2023-12-04T00:31:42.891Z,-2.48
2023-12-04T00:31:52.988Z,-2.53
2023-12-04T00:32:02.907Z,-2.42
2023-12-04T00:32:12.902Z,-2.32
2023-12-04T00:32:22.897Z,-2.50
2023-12-04T00:32:32.931Z,-2.38
2023-12-04T00:32:42.961Z,-2.57
2023-12-04T00:32:53.457Z,-2.50
2023-12-04T00:33:03.781Z,-2.35
2023-12-04T00:33:23.020Z,-2.40
2023-12-04T00:33:33.008Z,-2.48
2023-12-04T00:33:43.187Z,-2.28
2023-12-04T00:33:52.980Z,-2.33
2023-12-04T00:34:03.004Z,-2.35
2023-12-04T00:34:12.934Z,-2.40
2023-12-04T00:34:33.108Z,-2.43
2023-12-04T00:34:42.920Z,-2.28
2023-12-04T00:34:52.899Z,-2.51
2023-12-04T00:35:02.877Z,-2.28
2023-12-04T00:35:12.880Z,-2.32
2023-12-04T00:35:22.906Z,-2.36
2023-12-04T00:35:32.882Z,-2.51
2023-12-04T00:35:53.693Z,-2.32
2023-12-04T00:36:02.905Z,-2.51
2023-12-04T00:36:12.890Z,-2.36
2023-12-04T00:36:22.892Z,-2.48
2023-12-04T00:36:32.913Z,-2.38
2023-12-04T00:36:42.896Z,-2.48
2023-12-04T00:37:03.018Z,-2.58
2023-12-04T00:37:12.949Z,-2.33
2023-12-04T00:37:22.886Z,-2.43
2023-12-04T00:37:32.875Z,-2.56
2023-12-04T00:37:42.872Z,-2.47
2023-12-04T00:37:52.864Z,-2.51
2023-12-04T00:38:12.875Z,-2.32
2023-12-04T00:38:22.881Z,-2.54
2023-12-04T00:38:32.887Z,-2.56
2023-12-04T00:38:43.709Z,-2.42
2023-12-04T00:38:52.889Z,-2.51
2023-12-04T00:39:03.034Z,-2.50
2023-12-04T00:39:12.945Z,-2.45
2023-12-04T00:39:23.772Z,-2.53
2023-12-04T00:39:42.966Z,-2.54
2023-12-04T00:39:52.970Z,-2.58
2023-12-04T00:40:03.094Z,-2.53
2023-12-04T00:40:12.895Z,-2.64
2023-12-04T00:40:22.859Z,-2.42
2023-12-04T00:40:32.991Z,-2.61
2023-12-04T00:40:42.996Z,-2.74
2023-12-04T00:41:02.874Z,-2.57
2023-12-04T00:41:12.853Z,-2.66
2023-12-04T00:41:22.928Z,-2.71
2023-12-04T00:41:32.874Z,-2.61
2023-12-04T00:41:42.867Z,-2.53
2023-12-04T00:41:53.712Z,-2.53
2023-12-04T00:42:12.851Z,-2.38
2023-12-04T00:42:22.859Z,-2.56
2023-12-04T00:42:33.028Z,-2.61
2023-12-04T00:42:43.708Z,-2.50
2023-12-04T00:42:52.870Z,-2.54
2023-12-04T00:43:02.917Z,-2.64
2023-12-04T00:43:12.882Z,-2.64
2023-12-04T00:43:32.882Z,-2.61
2023-12-04T00:43:42.844Z,-2.53
2023-12-04T00:43:52.992Z,-2.39
2023-12-04T00:44:02.843Z,-2.61
2023-12-04T00:44:12.855Z,-2.61
2023-12-04T00:44:22.867Z,-2.74
2023-12-04T00:44:42.965Z,-2.54
2023-12-04T00:44:52.861Z,-2.68
2023-12-04T00:45:02.868Z,-2.58
2023-12-04T00:45:12.851Z,-2.71
2023-12-04T00:45:22.841Z,-2.60
2023-12-04T00:45:32.914Z,-2.69
2023-12-04T00:45:53.720Z,-2.69
2023-12-04T00:46:02.890Z,-2.56
2023-12-04T00:46:12.884Z,-2.64
2023-12-04T00:46:22.866Z,-2.60
2023-12-04T00:46:32.847Z,-2.75
2023-12-04T00:46:42.904Z,-2.74
2023-12-04T00:47:02.882Z,-2.64
2023-12-04T00:47:12.975Z,-2.53
2023-12-04T00:47:22.891Z,-2.63
2023-12-04T00:47:32.866Z,-2.54
2023-12-04T00:47:42.897Z,-2.60
2023-12-04T00:47:52.852Z,-2.69
2023-12-04T00:48:12.925Z,-2.57
2023-12-04T00:48:22.956Z,-2.60
2023-12-04T00:48:33.020Z,-2.69
2023-12-04T00:48:42.921Z,-2.71
2023-12-04T00:48:52.924Z,-2.72
2023-12-04T00:49:02.984Z,-2.93
2023-12-04T00:49:22.909Z,-2.78
2023-12-04T00:49:32.938Z,-2.68
2023-12-04T00:49:42.883Z,-2.74
2023-12-04T00:49:52.833Z,-2.82
2023-12-04T00:50:02.833Z,-2.68
2023-12-04T00:50:12.820Z,-2.75
2023-12-04T00:50:32.831Z,-2.75
2023-12-04T00:50:42.812Z,-2.72
2023-12-04T00:50:52.827Z,-2.74
2023-12-04T00:51:02.844Z,-2.58
2023-12-04T00:51:12.823Z,-2.61
2023-12-04T00:51:22.817Z,-2.75
2023-12-04T00:51:42.855Z,-2.63
2023-12-04T00:51:52.881Z,-2.75
2023-12-04T00:52:02.859Z,-2.71
2023-12-04T00:52:12.824Z,-2.72
2023-12-04T00:52:22.816Z,-2.87
2023-12-04T00:52:32.868Z,-2.97
2023-12-04T00:52:52.823Z,-2.97
2023-12-04T00:53:02.816Z,-2.68
2023-12-04T00:53:12.805Z,-2.82
2023-12-04T00:53:22.836Z,-2.81
2023-12-04T00:53:32.860Z,-2.63
2023-12-04T00:53:42.813Z,-2.81
2023-12-04T00:54:02.816Z,-2.76
2023-12-04T00:54:12.810Z,-2.81
2023-12-04T00:54:22.832Z,-2.75
2023-12-04T00:54:32.836Z,-2.85
2023-12-04T00:54:42.819Z,-2.86
2023-12-04T00:54:52.868Z,-2.72
2023-12-04T00:55:02.881Z,-2.89
2023-12-04T00:55:23.703Z,-2.72
2023-12-04T00:55:32.977Z,-2.92
2023-12-04T00:55:42.871Z,-2.87
2023-12-04T00:55:52.805Z,-2.76
2023-12-04T00:56:02.834Z,-2.89
2023-12-04T00:56:12.799Z,-2.89
2023-12-04T00:56:32.804Z,-2.97
2023-12-04T00:56:42.815Z,-2.97
2023-12-04T00:56:52.832Z,-2.78
2023-12-04T00:57:02.922Z,-2.82
2023-12-04T00:57:13.720Z,-2.71
2023-12-04T00:57:22.847Z,-2.87
2023-12-04T00:57:42.839Z,-2.76
2023-12-04T00:57:52.843Z,-2.97
2023-12-04T00:58:02.905Z,-3.05
2023-12-04T00:58:12.906Z,-2.72
2023-12-04T00:58:22.809Z,-2.79
2023-12-04T00:58:32.788Z,-2.92
2023-12-04T00:58:42.913Z,-2.75
2023-12-04T00:59:02.802Z,-2.76
2023-12-04T00:59:13.711Z,-2.86
2023-12-04T00:59:22.791Z,-2.76
2023-12-04T00:59:32.792Z,-2.87
2023-12-04T00:59:43.710Z,-2.63
2023-12-04T00:59:52.785Z,-2.87
2023-12-04T01:00:02.856Z,-2.89
2023-12-04T01:00:22.805Z,-2.76
2023-12-04T01:00:32.848Z,-2.86
2023-12-04T01:00:42.799Z,-2.81
2023-12-04T01:00:52.824Z,-2.97
2023-12-04T01:01:02.809Z,-2.79
2023-12-04T01:01:12.784Z,-3.07
2023-12-04T01:01:33.732Z,-2.94
2023-12-04T01:01:42.901Z,-2.81
2023-12-04T01:01:52.882Z,-2.76
2023-12-04T01:02:02.822Z,-2.94
2023-12-04T01:02:12.795Z,-2.90
2023-12-04T01:02:22.774Z,-2.78
2023-12-04T01:02:42.801Z,-2.86
2023-12-04T01:02:52.820Z,-2.75
2023-12-04T01:03:02.793Z,-2.66
2023-12-04T01:03:12.845Z,-2.79
2023-12-04T01:03:22.784Z,-2.69
2023-12-04T01:03:33.729Z,-2.89
2023-12-04T01:03:52.883Z,-2.64
2023-12-04T01:04:02.793Z,-2.90
2023-12-04T01:04:12.781Z,-2.79
2023-12-04T01:04:22.789Z,-2.78
2023-12-04T01:04:32.792Z,-2.76
2023-12-04T01:04:42.788Z,-2.90
2023-12-04T01:05:02.819Z,-2.93
2023-12-04T01:05:12.869Z,-2.89
2023-12-04T01:05:22.865Z,-2.79
2023-12-04T01:05:33.705Z,-2.82
2023-12-04T01:05:42.772Z,-2.85
2023-12-04T01:05:52.763Z,-2.85
2023-12-04T01:06:12.758Z,-2.78
2023-12-04T01:06:23.773Z,-2.76
2023-12-04T01:06:32.787Z,-2.76
2023-12-04T01:06:42.915Z,-2.69
2023-12-04T01:06:52.786Z,-2.78
2023-12-04T01:07:02.842Z,-2.82
2023-12-04T01:07:23.777Z,-2.79
2023-12-04T01:07:32.761Z,-2.75
2023-12-04T01:07:42.753Z,-2.76
2023-12-04T01:07:52.834Z,-2.74
2023-12-04T01:08:02.762Z,-2.78
2023-12-04T01:08:12.792Z,-2.68
2023-12-04T01:08:24.810Z,-3.00
2023-12-04T01:08:42.756Z,-2.85
2023-12-04T01:08:52.742Z,-2.97
2023-12-04T01:09:02.811Z,-2.89
2023-12-04T01:09:12.767Z,-2.66
2023-12-04T01:09:22.763Z,-2.69
2023-12-04T01:09:32.787Z,-2.74
2023-12-04T01:09:52.794Z,-2.87
2023-12-04T01:10:02.826Z,-2.85
2023-12-04T01:10:12.763Z,-2.76
2023-12-04T01:10:22.751Z,-2.86
2023-12-04T01:10:32.759Z,-3.07
2023-12-04T01:10:42.751Z,-2.89
2023-12-04T01:11:02.814Z,-2.72
2023-12-04T01:11:12.745Z,-2.86
2023-12-04T01:11:22.751Z,-2.82
2023-12-04T01:11:33.919Z,-2.81
2023-12-04T01:11:42.816Z,-2.78
2023-12-04T01:11:52.746Z,-2.85
2023-12-04T01:12:12.732Z,-2.87
2023-12-04T01:12:22.756Z,-2.72
2023-12-04T01:12:32.814Z,-2.71
2023-12-04T01:12:42.791Z,-3.05
2023-12-04T01:12:52.762Z,-2.81
2023-12-04T01:13:02.761Z,-2.92
2023-12-04T01:13:12.737Z,-2.99
2023-12-04T01:13:32.736Z,-2.78
2023-12-04T01:13:42.725Z,-2.96
2023-12-04T01:13:52.724Z,-2.96
2023-12-04T01:14:02.740Z,-2.90
2023-12-04T01:14:13.267Z,-2.93
2023-12-04T01:14:22.738Z,-3.00
2023-12-04T01:14:33.752Z,-2.92
2023-12-04T01:14:43.697Z,-3.08
2023-12-04T01:14:52.865Z,-2.74
2023-12-04T01:15:02.749Z,-2.68
2023-12-04T01:15:22.744Z,-2.89
2023-12-04T01:15:32.763Z,-2.69
2023-12-04T01:15:43.890Z,-3.00
2023-12-04T01:15:52.761Z,-2.75
2023-12-04T01:16:02.793Z,-2.85
2023-12-04T01:16:12.725Z,-2.75
2023-12-04T01:16:32.725Z,-2.97
2023-12-04T01:16:42.758Z,-2.89
2023-12-04T01:16:52.727Z,-2.93
2023-12-04T01:17:02.724Z,-2.86
2023-12-04T01:17:12.781Z,-3.02
2023-12-04T01:17:22.804Z,-2.81
2023-12-04T01:17:42.814Z,-2.97
2023-12-04T01:17:52.794Z,-2.96
2023-12-04T01:18:02.813Z,-2.97
2023-12-04T01:18:12.822Z,-2.96
2023-12-04T01:18:22.803Z,-2.96
2023-12-04T01:18:32.887Z,-2.76
2023-12-04T01:18:52.822Z,-2.78
2023-12-04T01:19:02.758Z,-3.00
2023-12-04T01:19:12.755Z,-2.92
2023-12-04T01:19:22.765Z,-2.93
2023-12-04T01:19:32.770Z,-2.90
2023-12-04T01:19:42.703Z,-2.81
2023-12-04T01:20:03.709Z,-3.04
2023-12-04T01:20:13.219Z,-2.96
2023-12-04T01:20:22.816Z,-2.76
2023-12-04T01:20:32.711Z,-2.68
2023-12-04T01:20:42.713Z,-2.90
2023-12-04T01:20:52.747Z,-2.72
2023-12-04T01:21:12.725Z,-2.89
2023-12-04T01:21:22.713Z,-2.82
2023-12-04T01:21:32.766Z,-2.81
2023-12-04T01:21:43.307Z,-2.97
2023-12-04T01:21:52.761Z,-2.86
2023-12-04T01:22:02.775Z,-3.08
2023-12-04T01:22:22.703Z,-2.93
2023-12-04T01:22:32.726Z,-2.93
2023-12-04T01:22:42.797Z,-3.00
2023-12-04T01:22:52.701Z,-2.85
2023-12-04T01:23:02.693Z,-2.96
2023-12-04T01:23:12.709Z,-2.97
2023-12-04T01:23:22.728Z,-2.90
2023-12-04T01:23:33.213Z,-2.79
2023-12-04T01:23:52.689Z,-2.78
2023-12-04T01:24:02.692Z,-3.05
2023-12-04T01:24:12.693Z,-2.75
2023-12-04T01:24:22.694Z,-2.86
2023-12-04T01:24:33.307Z,-3.04
2023-12-04T01:24:42.692Z,-3.04
2023-12-04T01:25:02.724Z,-2.97
2023-12-04T01:25:12.810Z,-3.04
2023-12-04T01:25:22.695Z,-3.00
2023-12-04T01:25:32.714Z,-2.81
2023-12-04T01:25:42.681Z,-2.76
2023-12-04T01:25:52.680Z,-2.68
2023-12-04T01:26:12.703Z,-3.14
2023-12-04T01:26:23.230Z,-2.96
2023-12-04T01:26:33.208Z,-2.86
2023-12-04T01:26:42.675Z,-2.76
2023-12-04T01:26:52.684Z,-2.82
2023-12-04T01:27:02.712Z,-3.13
2023-12-04T01:27:22.709Z,-2.76
2023-12-04T01:27:32.714Z,-2.92
2023-12-04T01:27:42.715Z,-2.82
2023-12-04T01:27:52.759Z,-3.02
2023-12-04T01:28:02.718Z,-2.74
2023-12-04T01:28:12.692Z,-2.94
2023-12-04T01:28:32.690Z,-2.90
2023-12-04T01:28:42.711Z,-2.97
2023-12-04T01:28:52.682Z,-3.07
2023-12-04T01:29:02.689Z,-2.81
2023-12-04T01:29:12.679Z,-2.96
2023-12-04T01:29:23.214Z,-2.87
2023-12-04T01:29:32.732Z,-2.85
2023-12-04T01:29:42.853Z,-2.74
2023-12-04T01:29:52.739Z,-3.22
2023-12-04T01:30:12.675Z,-3.00
2023-12-04T01:30:22.769Z,-2.87
2023-12-04T01:30:32.685Z,-3.14
2023-12-04T01:30:42.682Z,-3.10
2023-12-04T01:30:52.677Z,-2.97
2023-12-04T01:31:02.779Z,-3.07
2023-12-04T01:31:22.691Z,-3.08
2023-12-04T01:31:32.674Z,-2.93
2023-12-04T01:31:42.659Z,-3.14
2023-12-04T01:31:52.673Z,-3.25
2023-12-04T01:32:02.682Z,-3.04
2023-12-04T01:32:12.690Z,-3.02
2023-12-04T01:32:32.689Z,-3.02
2023-12-04T01:32:43.217Z,-2.90
2023-12-04T01:32:52.990Z,-3.07
2023-12-04T01:33:02.709Z,-3.29
2023-12-04T01:33:12.790Z,-3.14
2023-12-04T01:33:22.709Z,-3.11
2023-12-04T01:33:33.263Z,-2.96
2023-12-04T01:33:52.710Z,-3.14
2023-12-04T01:34:02.744Z,-3.17
2023-12-04T01:34:12.663Z,-3.23
2023-12-04T01:34:22.716Z,-2.96
2023-12-04T01:34:32.685Z,-3.13
2023-12-04T01:34:42.649Z,-3.29
2023-12-04T01:34:52.703Z,-3.11
2023-12-04T01:35:12.684Z,-3.13
2023-12-04T01:35:22.652Z,-3.11
2023-12-04T01:35:32.660Z,-3.14
2023-12-04T01:35:42.642Z,-3.00
2023-12-04T01:35:52.673Z,-3.10
2023-12-04T01:36:03.228Z,-3.15
2023-12-04T01:36:23.200Z,-3.10
2023-12-04T01:36:32.740Z,-3.15
2023-12-04T01:36:42.677Z,-3.04
2023-12-04T01:36:52.705Z,-3.07
2023-12-04T01:37:02.725Z,-3.11
2023-12-04T01:37:12.647Z,-3.08
2023-12-04T01:37:32.689Z,-3.14
2023-12-04T01:37:42.650Z,-2.93
2023-12-04T01:37:52.653Z,-3.10
2023-12-04T01:38:02.642Z,-3.10
2023-12-04T01:38:12.654Z,-3.18
2023-12-04T01:38:22.658Z,-3.15
2023-12-04T01:38:42.670Z,-3.20
2023-12-04T01:38:52.671Z,-3.28
2023-12-04T01:39:02.634Z,-3.31
2023-12-04T01:39:12.660Z,-3.11
2023-12-04T01:39:23.238Z,-3.08
2023-12-04T01:39:32.642Z,-3.26
2023-12-04T01:39:52.723Z,-3.22
2023-12-04T01:40:02.762Z,-3.22
2023-12-04T01:40:12.674Z,-3.32
2023-12-04T01:40:22.625Z,-3.25
2023-12-04T01:40:32.635Z,-3.28
2023-12-04T01:40:42.634Z,-3.14
2023-12-04T01:41:02.633Z,-3.14
2023-12-04T01:41:12.626Z,-3.20
2023-12-04T01:41:22.626Z,-3.22
2023-12-04T01:41:32.684Z,-3.08
2023-12-04T01:41:42.633Z,-3.35
2023-12-04T01:41:52.689Z,-3.31
2023-12-04T01:42:03.203Z,-3.31
2023-12-04T01:42:12.655Z,-3.44
2023-12-04T01:42:23.209Z,-3.25
2023-12-04T01:42:42.824Z,-3.43
2023-12-04T01:42:52.685Z,-3.29
2023-12-04T01:43:02.680Z,-3.38
2023-12-04T01:43:12.651Z,-3.10
2023-12-04T01:43:22.618Z,-3.11
2023-12-04T01:43:32.645Z,-3.31
2023-12-04T01:43:42.660Z,-3.56
2023-12-04T01:44:02.640Z,-3.50
2023-12-04T01:44:12.615Z,-3.51
2023-12-04T01:44:22.645Z,-3.44
2023-12-04T01:44:33.247Z,-3.43
2023-12-04T01:44:42.722Z,-3.47
2023-12-04T01:44:52.622Z,-3.39
2023-12-04T01:45:03.236Z,-3.33
2023-12-04T01:45:12.676Z,-3.67
2023-12-04T01:45:23.231Z,-3.47
2023-12-04T01:45:42.632Z,-3.41
2023-12-04T01:45:52.683Z,-3.43
2023-12-04T01:46:02.631Z,-3.50
2023-12-04T01:46:12.608Z,-3.62
2023-12-04T01:46:22.640Z,-3.72
2023-12-04T01:46:33.269Z,-3.71
2023-12-04T01:46:52.618Z,-3.62
2023-12-04T01:47:02.676Z,-3.65
2023-12-04T01:47:12.628Z,-3.57
2023-12-04T01:47:22.602Z,-3.78
2023-12-04T01:47:32.659Z,-3.75
2023-12-04T01:47:42.684Z,-3.71
2023-12-04T01:48:02.714Z,-3.83
2023-12-04T01:48:13.272Z,-3.75
2023-12-04T01:48:23.288Z,-3.62
2023-12-04T01:48:32.809Z,-3.65
2023-12-04T01:48:42.726Z,-3.71
2023-12-04T01:48:52.754Z,-3.64
2023-12-04T01:49:12.713Z,-3.68
2023-12-04T01:49:22.671Z,-3.75
2023-12-04T01:49:32.616Z,-3.65
2023-12-04T01:49:42.608Z,-3.76
2023-12-04T01:49:52.607Z,-3.72
2023-12-04T01:50:02.602Z,-3.76
2023-12-04T01:50:22.659Z,-3.84
2023-12-04T01:50:32.601Z,-3.64
2023-12-04T01:50:42.595Z,-3.94
2023-12-04T01:50:52.612Z,-3.65
2023-12-04T01:51:02.585Z,-4.05
2023-12-04T01:51:13.219Z,-3.90
2023-12-04T01:51:22.717Z,-3.93
2023-12-04T01:51:32.686Z,-3.93
2023-12-04T01:51:52.639Z,-3.84
2023-12-04T01:52:02.629Z,-3.94
2023-12-04T01:52:12.626Z,-3.83
2023-12-04T01:52:22.620Z,-4.08
2023-12-04T01:52:32.595Z,-4.04
2023-12-04T01:52:42.637Z,-3.91
2023-12-04T01:53:02.613Z,-3.99
2023-12-04T01:53:12.595Z,-3.96
2023-12-04T01:53:22.580Z,-4.08
2023-12-04T01:53:32.585Z,-3.90
2023-12-04T01:53:42.577Z,-3.90
2023-12-04T01:53:52.626Z,-3.98
2023-12-04T01:54:12.694Z,-4.14
2023-12-04T01:54:25.243Z,-3.99
2023-12-04T01:54:32.743Z,-4.01
2023-12-04T01:54:42.627Z,-3.98
2023-12-04T01:54:52.594Z,-4.07
2023-12-04T01:55:02.707Z,-4.11
2023-12-04T01:55:22.570Z,-4.30
2023-12-04T01:55:32.681Z,-3.81
2023-12-04T01:55:42.593Z,-4.22
2023-12-04T01:55:52.575Z,-4.09
2023-12-04T01:56:02.568Z,-4.02
2023-12-04T01:56:12.579Z,-4.15
2023-12-04T01:56:22.579Z,-4.05
2023-12-04T01:56:42.586Z,-3.99
2023-12-04T01:56:52.574Z,-3.83
2023-12-04T01:57:02.589Z,-4.11
2023-12-04T01:57:12.572Z,-4.14
2023-12-04T01:57:22.571Z,-4.04
2023-12-04T01:57:32.604Z,-4.09
2023-12-04T01:57:43.386Z,-3.94
2023-12-04T01:57:52.727Z,-4.09
2023-12-04T01:58:02.691Z,-4.23
2023-12-04T01:58:22.620Z,-4.12
2023-12-04T01:58:32.635Z,-4.07
2023-12-04T01:58:42.561Z,-4.12
2023-12-04T01:58:52.560Z,-4.11
2023-12-04T01:59:02.562Z,-4.07
2023-12-04T01:59:12.593Z,-4.22
2023-12-04T01:59:22.587Z,-4.20
2023-12-04T01:59:42.566Z,-4.08
2023-12-04T01:59:53.215Z,-4.25
2023-12-04T02:00:02.617Z,-4.14
2023-12-04T02:00:12.707Z,-4.30
2023-12-04T02:00:22.560Z,-4.22
2023-12-04T02:00:32.594Z,-4.09
2023-12-04T02:00:42.815Z,-4.26
2023-12-04T02:01:03.235Z,-4.09
2023-12-04T02:01:12.558Z,-4.36
2023-12-04T02:01:22.604Z,-4.20
2023-12-04T02:01:32.589Z,-4.04
2023-12-04T02:01:42.607Z,-4.32
2023-12-04T02:01:52.587Z,-4.08
2023-12-04T02:02:13.216Z,-4.04
2023-12-04T02:02:22.556Z,-4.14
2023-12-04T02:02:32.555Z,-4.18
2023-12-04T02:02:42.542Z,-4.08
2023-12-04T02:02:52.579Z,-4.02
2023-12-04T02:03:02.594Z,-4.20
2023-12-04T02:03:22.569Z,-4.32
2023-12-04T02:03:32.708Z,-4.19
2023-12-04T02:03:42.569Z,-4.32
2023-12-04T02:03:53.278Z,-4.12
2023-12-04T02:04:02.879Z,-4.20
2023-12-04T02:04:13.323Z,-4.02
2023-12-04T02:04:32.652Z,-4.28
2023-12-04T02:04:42.599Z,-4.22
2023-12-04T02:04:52.566Z,-4.32
2023-12-04T02:05:02.665Z,-4.40
2023-12-04T02:05:12.532Z,-4.12
2023-12-04T02:05:22.533Z,-4.20
2023-12-04T02:05:42.604Z,-4.18
2023-12-04T02:05:52.581Z,-4.23
2023-12-04T02:06:02.539Z,-4.25
2023-12-04T02:06:12.543Z,-4.04
2023-12-04T02:06:22.546Z,-4.15
2023-12-04T02:06:32.574Z,-4.20
2023-12-04T02:06:52.580Z,-4.14
2023-12-04T02:07:02.590Z,-4.25
2023-12-04T02:07:12.653Z,-4.22
2023-12-04T02:07:22.680Z,-4.18
2023-12-04T02:07:32.538Z,-4.05
2023-12-04T02:07:42.554Z,-4.15
2023-12-04T02:08:02.553Z,-4.01
2023-12-04T02:08:12.547Z,-4.20
2023-12-04T02:08:22.532Z,-4.26
2023-12-04T02:08:32.545Z,-4.18
2023-12-04T02:08:42.536Z,-4.22
2023-12-04T02:08:52.555Z,-4.15
2023-12-04T02:09:02.561Z,-4.07
2023-12-04T02:09:22.524Z,-4.02
2023-12-04T02:09:32.556Z,-4.19
2023-12-04T02:09:42.553Z,-4.12
2023-12-04T02:09:52.577Z,-4.14
2023-12-04T02:10:02.556Z,-4.09
2023-12-04T02:10:13.242Z,-4.23
2023-12-04T02:10:22.644Z,-4.19
2023-12-04T02:10:42.536Z,-4.22
2023-12-04T02:10:52.534Z,-4.01
2023-12-04T02:11:02.562Z,-4.05
2023-12-04T02:11:12.535Z,-4.09
2023-12-04T02:11:23.217Z,-3.90
2023-12-04T02:11:32.516Z,-4.09
2023-12-04T02:11:53.247Z,-4.30
2023-12-04T02:12:02.624Z,-4.09
2023-12-04T02:12:12.534Z,-4.25
2023-12-04T02:12:22.517Z,-3.99
2023-12-04T02:12:32.631Z,-4.01
2023-12-04T02:12:42.552Z,-4.01
2023-12-04T02:12:53.286Z,-4.07
2023-12-04T02:13:12.526Z,-3.86
2023-12-04T02:13:23.216Z,-3.96
2023-12-04T02:13:32.514Z,-3.91
2023-12-04T02:13:42.562Z,-3.91
2023-12-04T02:13:52.505Z,-4.12
2023-12-04T02:14:02.538Z,-4.25
2023-12-04T02:14:12.586Z,-4.07
2023-12-04T02:14:32.507Z,-3.96
2023-12-04T02:14:42.512Z,-4.18
2023-12-04T02:14:52.513Z,-3.91
2023-12-04T02:15:02.497Z,-3.93
2023-12-04T02:15:12.511Z,-4.09
2023-12-04T02:15:22.512Z,-3.99
2023-12-04T02:15:32.549Z,-3.99
2023-12-04T02:15:53.293Z,-4.09
2023-12-04T02:16:02.588Z,-4.05
2023-12-04T02:16:12.587Z,-4.02
2023-12-04T02:16:22.522Z,-4.01
2023-12-04T02:16:33.226Z,-3.81
2023-12-04T02:16:42.518Z,-3.99
2023-12-04T02:17:02.496Z,-3.84
2023-12-04T02:17:12.495Z,-4.02
2023-12-04T02:17:22.532Z,-3.89
2023-12-04T02:17:32.509Z,-4.04
2023-12-04T02:17:42.605Z,-3.99
2023-12-04T02:17:52.550Z,-3.89
2023-12-04T02:18:02.606Z,-4.07
2023-12-04T02:18:12.543Z,-3.93
2023-12-04T02:18:32.574Z,-3.90
2023-12-04T02:18:42.731Z,-4.05
2023-12-04T02:18:53.383Z,-3.87
2023-12-04T02:19:02.546Z,-4.04
2023-12-04T02:19:12.560Z,-3.93
2023-12-04T02:19:22.596Z,-3.96
2023-12-04T02:19:33.277Z,-3.99
2023-12-04T02:19:43.243Z,-3.99
2023-12-04T02:19:53.245Z,-4.04
2023-12-04T02:20:02.510Z,-3.99
2023-12-04T02:20:22.493Z,-3.93
2023-12-04T02:20:32.517Z,-3.83
2023-12-04T02:20:42.517Z,-3.90
2023-12-04T02:20:52.503Z,-4.08
2023-12-04T02:21:02.484Z,-3.83
2023-12-04T02:21:12.482Z,-3.72
2023-12-04T02:21:22.541Z,-3.91
2023-12-04T02:21:33.381Z,-3.89
2023-12-04T02:21:52.538Z,-3.76
2023-12-04T02:22:02.537Z,-3.98
2023-12-04T02:22:12.477Z,-4.02
2023-12-04T02:22:22.487Z,-3.81
2023-12-04T02:22:32.489Z,-3.93
2023-12-04T02:22:42.483Z,-3.89
2023-12-04T02:22:53.221Z,-3.70
2023-12-04T02:23:12.477Z,-3.99
2023-12-04T02:23:25.310Z,-3.90
2023-12-04T02:23:32.492Z,-3.67
2023-12-04T02:23:42.475Z,-3.89
2023-12-04T02:23:52.491Z,-3.91
2023-12-04T02:24:02.489Z,-4.04
2023-12-04T02:24:12.523Z,-3.83
2023-12-04T02:24:32.540Z,-3.86
2023-12-04T02:24:42.515Z,-3.91
2023-12-04T02:24:53.251Z,-3.84
2023-12-04T02:25:02.541Z,-4.02
2023-12-04T02:25:25.640Z,-3.90
2023-12-04T02:25:30.688Z,-3.98
2023-12-04T02:25:37.038Z,-3.80
2023-12-04T02:25:52.469Z,-3.91
2023-12-04T02:26:02.486Z,-3.99
2023-12-04T02:26:13.293Z,-3.99
2023-12-04T02:26:22.512Z,-3.86
2023-12-04T02:26:32.594Z,-3.93
2023-12-04T02:26:42.469Z,-3.96
2023-12-04T02:27:02.474Z,-4.04
2023-12-04T02:27:12.490Z,-4.07
2023-12-04T02:27:22.469Z,-4.01
2023-12-04T02:27:32.485Z,-3.87
2023-12-04T02:27:42.494Z,-3.84
2023-12-04T02:27:52.498Z,-3.80
2023-12-04T02:28:02.492Z,-3.90
2023-12-04T02:28:23.286Z,-3.99